Time;durP1;ratioP1;P1;durP2;ratioP2;P2;SDS_P1;SDS_P2;PMS_P1;PMS_P2;Temp;Humidity;BMP_temperature;BMP_pressure;BME280_temperature;BME280_humidity;BME280_pressure;Samples;Min_cycle;Max_cycle;Signal;HPM_P1;HPM_P2
2023/04/17 00:00:37;;;;;;;42.13;26.58;;;8.70;99.90;;;;;;5155360;27;20137;-58
2023/04/17 00:03:03;;;;;;;37.30;25.83;;;8.60;99.90;;;;;;5155515;27;20037;-59
2023/04/17 00:05:30;;;;;;;40.22;25.63;;;8.70;99.90;;;;;;5155350;27;20043;-58
2023/04/17 00:07:58;;;;;;;40.63;26.88;;;8.60;99.90;;;;;;5155668;27;20070;-59
2023/04/17 00:10:24;;;;;;;40.58;24.88;;;8.60;99.90;;;;;;5154974;27;20429;-59
2023/04/17 00:12:50;;;;;;;34.13;24.48;;;8.70;99.90;;;;;;5155348;27;20030;-58
2023/04/17 00:15:15;;;;;;;35.78;24.88;;;8.60;99.90;;;;;;5155440;27;20107;-59
2023/04/17 00:17:41;;;;;;;33.22;23.75;;;8.60;99.90;;;;;;5154961;27;20082;-60
2023/04/17 00:20:10;;;;;;;37.47;24.52;;;8.60;99.90;;;;;;5154976;27;20035;-60
2023/04/17 00:22:36;;;;;;;37.28;25.50;;;8.70;99.90;;;;;;5155056;27;20094;-60
2023/04/17 00:25:03;;;;;;;37.10;24.08;;;8.60;99.90;;;;;;5154859;27;20038;-59
2023/04/17 00:27:28;;;;;;;37.13;24.60;;;8.50;99.90;;;;;;5154817;27;20038;-59
2023/04/17 00:29:54;;;;;;;36.50;23.90;;;8.60;99.90;;;;;;5155026;27;20503;-59
2023/04/17 00:32:20;;;;;;;36.42;24.30;;;8.60;99.90;;;;;;5154871;27;20114;-59
2023/04/17 00:34:45;;;;;;;36.25;24.27;;;8.60;99.90;;;;;;5154852;27;20057;-59
2023/04/17 00:37:11;;;;;;;34.47;23.52;;;8.60;99.90;;;;;;5154813;27;20050;-59
2023/04/17 00:39:37;;;;;;;36.78;23.98;;;8.50;99.90;;;;;;5154989;27;20764;-59
2023/04/17 00:42:02;;;;;;;34.90;23.15;;;8.60;99.90;;;;;;5154602;27;20038;-59
2023/04/17 00:44:28;;;;;;;33.28;22.40;;;8.50;99.90;;;;;;5154354;27;20042;-59
2023/04/17 00:46:54;;;;;;;35.88;24.77;;;8.60;99.90;;;;;;5154619;27;20050;-59
2023/04/17 00:49:21;;;;;;;35.70;24.13;;;8.50;99.90;;;;;;5136035;27;20499;-59
2023/04/17 00:51:47;;;;;;;32.90;23.65;;;8.60;99.90;;;;;;5154543;27;20066;-59
2023/04/17 00:54:13;;;;;;;38.25;23.90;;;8.60;99.90;;;;;;5154750;27;20455;-59
2023/04/17 00:56:43;;;;;;;35.83;23.77;;;8.50;99.90;;;;;;5135776;27;20074;-59
2023/04/17 00:59:15;;;;;;;38.00;24.60;;;8.60;99.90;;;;;;5154612;27;20353;-60
2023/04/17 01:01:40;;;;;;;39.15;22.83;;;8.50;99.90;;;;;;5154567;27;20030;-60
2023/04/17 01:04:08;;;;;;;34.50;23.83;;;8.50;99.90;;;;;;5154740;27;20154;-60
2023/04/17 01:06:35;;;;;;;35.47;23.27;;;8.50;99.90;;;;;;5154316;27;20039;-59
2023/04/17 01:09:01;;;;;;;36.92;24.80;;;8.50;99.90;;;;;;5154235;27;20035;-59
2023/04/17 01:11:27;;;;;;;35.58;23.77;;;8.50;99.90;;;;;;5135177;27;20047;-60
2023/04/17 01:13:53;;;;;;;37.30;23.50;;;8.50;99.90;;;;;;5135656;27;20034;-60
2023/04/17 01:16:19;;;;;;;38.17;23.83;;;8.40;99.90;;;;;;5153961;27;20042;-60
2023/04/17 01:18:48;;;;;;;36.88;24.52;;;8.40;99.90;;;;;;5154032;27;20472;-59
2023/04/17 01:21:14;;;;;;;;;;;8.50;99.90;;;;;;5153944;27;20117;-59
2023/04/17 01:23:42;;;;;;;41.90;24.98;;;8.50;99.90;;;;;;5153790;27;19915;-60
2023/04/17 01:26:08;;;;;;;42.85;26.45;;;8.50;99.90;;;;;;5135093;27;20491;-59
2023/04/17 01:28:33;;;;;;;40.75;26.17;;;8.40;99.90;;;;;;5135357;27;20050;-59
2023/04/17 01:30:59;;;;;;;40.80;25.00;;;8.50;99.90;;;;;;5154179;27;20041;-59
2023/04/17 01:33:24;;;;;;;45.05;26.13;;;8.40;99.90;;;;;;5154101;27;20365;-59
2023/04/17 01:35:50;;;;;;;42.38;24.80;;;8.30;99.90;;;;;;5153783;27;20042;-59
2023/04/17 01:38:16;;;;;;;47.08;26.60;;;8.50;99.90;;;;;;5153541;27;20054;-59
2023/04/17 01:40:41;;;;;;;39.05;25.42;;;8.40;99.90;;;;;;5153721;27;20064;-59
2023/04/17 01:43:07;;;;;;;49.53;27.67;;;8.50;99.90;;;;;;5153798;27;20038;-59
2023/04/17 01:45:32;;;;;;;54.33;28.33;;;8.50;99.90;;;;;;5153986;27;20078;-59
2023/04/17 01:47:59;;;;;;;42.53;25.02;;;8.40;99.90;;;;;;5153966;27;20089;-59
2023/04/17 01:50:26;;;;;;;40.10;24.92;;;8.50;99.90;;;;;;5134679;27;20042;-60
2023/04/17 01:52:52;;;;;;;43.45;24.40;;;8.40;99.90;;;;;;5153599;27;20043;-59
2023/04/17 01:55:17;;;;;;;40.05;24.88;;;8.50;99.90;;;;;;5135159;27;20038;-59
2023/04/17 01:57:43;;;;;;;39.90;25.85;;;8.50;99.90;;;;;;5153794;27;20425;-59
2023/04/17 02:00:09;;;;;;;42.58;25.27;;;8.40;99.90;;;;;;5153723;27;20034;-59
2023/04/17 02:02:35;;;;;;;39.42;24.58;;;8.50;99.90;;;;;;5153748;27;20114;-59
2023/04/17 02:05:01;;;;;;;37.45;24.25;;;8.50;99.90;;;;;;5154143;27;20192;-59
2023/04/17 02:07:26;;;;;;;36.85;23.42;;;8.50;99.90;;;;;;5153353;27;20039;-59
2023/04/17 02:09:52;;;;;;;40.15;25.20;;;8.40;99.90;;;;;;5134961;27;20031;-59
2023/04/17 02:12:18;;;;;;;37.55;24.25;;;8.40;99.90;;;;;;5134955;27;20049;-59
2023/04/17 02:14:43;;;;;;;42.95;25.38;;;8.50;99.90;;;;;;5153495;27;20045;-59
2023/04/17 02:17:09;;;;;;;41.42;24.40;;;8.40;99.90;;;;;;5153709;27;20034;-59
2023/04/17 02:19:35;;;;;;;39.30;24.45;;;8.40;99.90;;;;;;5153331;27;20555;-59
2023/04/17 02:22:00;;;;;;;39.00;22.90;;;8.40;99.90;;;;;;5153262;27;20035;-59
2023/04/17 02:24:26;;;;;;;43.47;24.15;;;8.30;99.90;;;;;;5153319;27;20118;-60
2023/04/17 02:26:53;;;;;;;39.03;22.27;;;8.30;99.90;;;;;;5153149;27;20049;-59
2023/04/17 02:29:18;;;;;;;43.33;23.13;;;8.20;99.90;;;;;;5134850;27;20039;-59
2023/04/17 02:31:44;;;;;;;35.90;22.63;;;8.20;99.90;;;;;;5154037;27;20083;-59
2023/04/17 02:34:10;;;;;;;33.53;23.05;;;8.30;99.90;;;;;;5157201;27;20080;-58
2023/04/17 02:36:35;;;;;;;36.00;23.73;;;8.30;99.90;;;;;;5157074;27;20513;-59
2023/04/17 02:39:01;;;;;;;37.25;22.05;;;8.20;99.90;;;;;;5156979;27;20071;-59
2023/04/17 02:41:26;;;;;;;32.70;21.17;;;8.20;99.90;;;;;;5156976;27;20038;-59
2023/04/17 02:43:52;;;;;;;35.13;22.95;;;8.20;99.90;;;;;;5157607;27;20047;-59
2023/04/17 02:46:18;;;;;;;35.45;22.40;;;8.20;99.90;;;;;;5156831;27;20043;-59
2023/04/17 02:48:43;;;;;;;46.40;23.13;;;8.20;99.90;;;;;;5157228;27;20199;-58
2023/04/17 02:51:09;;;;;;;38.22;22.80;;;8.20;99.90;;;;;;5156923;27;20070;-59
2023/04/17 02:53:35;;;;;;;36.33;21.80;;;8.30;99.90;;;;;;5156994;27;20050;-58
2023/04/17 02:56:00;;;;;;;39.92;23.17;;;8.20;99.90;;;;;;5156683;27;20041;-59
2023/04/17 02:58:26;;;;;;;45.47;22.02;;;8.20;99.90;;;;;;5156657;27;20045;-59
2023/04/17 03:00:59;;;;;;;33.30;20.92;;;8.30;99.90;;;;;;5156545;27;20403;-59
2023/04/17 03:03:25;;;;;;;36.60;20.90;;;8.20;99.90;;;;;;5156487;27;20038;-59
2023/04/17 03:05:51;;;;;;;31.80;21.08;;;8.20;99.90;;;;;;5156338;27;20049;-59
2023/04/17 03:08:16;;;;;;;32.67;21.45;;;8.20;99.90;;;;;;5156799;27;20030;-59
2023/04/17 03:10:42;;;;;;;34.53;21.90;;;8.20;99.90;;;;;;5156698;27;20038;-59
2023/04/17 03:13:08;;;;;;;34.90;21.98;;;8.20;99.90;;;;;;5156666;27;20438;-59
2023/04/17 03:15:35;;;;;;;42.55;24.83;;;8.30;99.90;;;;;;5156867;27;20380;-59
2023/04/17 03:18:00;;;;;;;32.65;21.35;;;8.20;99.90;;;;;;5156257;27;20046;-59
2023/04/17 03:20:26;;;;;;;36.55;22.35;;;8.20;99.90;;;;;;5156349;27;20099;-59
2023/04/17 03:22:51;;;;;;;35.97;22.80;;;8.20;99.90;;;;;;5156303;27;20083;-59
2023/04/17 03:25:17;;;;;;;37.45;23.20;;;8.30;99.90;;;;;;5155874;27;20506;-59
2023/04/17 03:27:43;;;;;;;37.47;23.33;;;8.30;99.90;;;;;;5120280;27;20050;-59
2023/04/17 03:30:09;;;;;;;37.45;22.63;;;8.10;99.90;;;;;;5155996;27;20083;-59
2023/04/17 03:32:36;;;;;;;38.05;23.35;;;8.20;99.90;;;;;;5156074;27;20034;-59
2023/04/17 03:35:02;;;;;;;39.40;23.13;;;8.20;99.90;;;;;;5156052;27;20042;-59
2023/04/17 03:37:28;;;;;;;39.05;23.23;;;8.30;99.90;;;;;;5155803;27;20129;-58
2023/04/17 03:39:54;;;;;;;41.45;24.00;;;8.20;99.90;;;;;;5137176;27;20125;-59
2023/04/17 03:42:20;;;;;;;43.33;23.92;;;8.20;99.90;;;;;;5156187;27;20053;-58
2023/04/17 03:44:45;;;;;;;55.10;26.00;;;8.20;99.90;;;;;;5155118;27;20039;-58
2023/04/17 03:47:11;;;;;;;52.72;27.25;;;8.20;99.90;;;;;;5155715;27;20042;-59
2023/04/17 03:49:37;;;;;;;53.88;27.15;;;8.20;99.90;;;;;;5155693;27;20045;-58
2023/04/17 03:52:02;;;;;;;52.28;25.52;;;8.20;99.90;;;;;;5155732;27;20034;-59
2023/04/17 03:54:28;;;;;;;48.92;25.25;;;8.20;99.90;;;;;;5155937;27;20105;-59
2023/04/17 03:56:54;;;;;;;48.75;25.48;;;8.10;99.90;;;;;;5136887;27;20042;-58
2023/04/17 03:59:20;;;;;;;36.35;21.45;;;8.10;99.90;;;;;;5155737;27;20071;-59
2023/04/17 04:01:46;;;;;;;36.95;22.50;;;8.20;99.90;;;;;;5155344;27;20123;-59
2023/04/17 04:04:11;;;;;;;41.05;22.17;;;8.00;99.90;;;;;;5155657;27;20049;-59
2023/04/17 04:06:38;;;;;;;37.35;21.25;;;8.10;99.90;;;;;;5155375;27;20035;-59
2023/04/17 04:09:03;;;;;;;42.53;23.02;;;8.00;99.90;;;;;;5155050;27;20453;-59
2023/04/17 04:11:29;;;;;;;56.75;22.45;;;8.10;99.90;;;;;;5155426;27;20103;-59
2023/04/17 04:13:55;;;;;;;32.42;21.40;;;8.10;99.90;;;;;;5155359;27;20061;-59
2023/04/17 04:16:20;;;;;;;76.22;23.60;;;8.00;99.90;;;;;;5155411;27;20034;-58
2023/04/17 04:18:46;;;;;;;67.30;23.23;;;7.90;99.90;;;;;;5155143;27;20077;-59
2023/04/17 04:21:12;;;;;;;51.83;25.25;;;7.90;99.90;;;;;;5136336;27;20054;-58
2023/04/17 04:23:40;;;;;;;48.28;24.73;;;8.00;99.90;;;;;;5155275;27;20129;-58
2023/04/17 04:26:06;;;;;;;42.55;23.88;;;7.90;99.90;;;;;;5154808;27;20560;-59
2023/04/17 04:28:32;;;;;;;39.00;24.15;;;8.10;99.90;;;;;;5155439;27;20081;-59
2023/04/17 04:30:58;;;;;;;41.00;24.25;;;8.00;99.90;;;;;;5155517;27;20058;-59
2023/04/17 04:33:26;;;;;;;42.58;24.75;;;8.00;99.90;;;;;;5154760;27;20049;-60
2023/04/17 04:35:54;;;;;;;44.72;25.42;;;8.00;99.90;;;;;;5154756;27;20057;-59
2023/04/17 04:38:29;;;;;;;47.75;26.75;;;8.10;99.90;;;;;;5136247;27;20058;-58
2023/04/17 04:41:00;;;;;;;43.05;26.35;;;8.00;99.90;;;;;;5131384;27;20043;-59
2023/04/17 04:43:29;;;;;;;45.72;26.08;;;8.00;99.90;;;;;;5147144;27;20118;-58
2023/04/17 04:45:55;;;;;;;40.20;25.10;;;8.10;99.90;;;;;;5154454;27;20043;-59
2023/04/17 04:48:21;;;;;;;42.40;25.92;;;8.00;99.90;;;;;;5154466;27;20038;-58
2023/04/17 04:50:46;;;;;;;48.03;26.02;;;8.00;99.90;;;;;;5154128;27;20117;-58
2023/04/17 04:53:12;;;;;;;37.60;23.40;;;8.10;99.90;;;;;;5135878;27;20042;-59
2023/04/17 04:55:38;;;;;;;42.78;25.33;;;8.00;99.90;;;;;;5153457;27;20085;-58
2023/04/17 04:58:03;;;;;;;42.03;24.90;;;8.10;99.90;;;;;;5153592;27;20046;-58
2023/04/17 05:00:29;;;;;;;36.33;24.27;;;8.20;99.90;;;;;;5135954;27;20090;-58
2023/04/17 05:02:55;;;;;;;39.00;24.65;;;8.10;99.90;;;;;;5154498;27;20049;-59
2023/04/17 05:05:20;;;;;;;42.22;24.65;;;8.20;99.90;;;;;;5154347;27;20050;-59
2023/04/17 05:07:46;;;;;;;43.38;25.95;;;8.20;99.90;;;;;;5154107;27;20034;-59
2023/04/17 05:10:12;;;;;;;37.40;24.08;;;8.20;99.90;;;;;;5154273;27;20070;-58
2023/04/17 05:12:37;;;;;;;39.25;25.08;;;8.20;99.90;;;;;;5154295;27;20091;-59
2023/04/17 05:15:03;;;;;;;47.08;25.83;;;8.30;99.90;;;;;;5154111;27;20031;-59
2023/04/17 05:17:29;;;;;;;44.25;24.45;;;8.20;99.90;;;;;;5135546;27;20047;-59
2023/04/17 05:19:55;;;;;;;41.22;25.85;;;8.20;99.90;;;;;;5154158;27;20046;-59
2023/04/17 05:22:21;;;;;;;37.20;23.30;;;8.10;99.90;;;;;;5154212;27;20476;-59
2023/04/17 05:24:46;;;;;;;37.53;22.55;;;8.20;99.90;;;;;;5140377;27;20512;-59
2023/04/17 05:27:12;;;;;;;35.35;22.23;;;8.10;99.90;;;;;;5133193;27;20473;-59
2023/04/17 05:29:37;;;;;;;34.20;21.48;;;8.30;99.90;;;;;;5133270;27;20512;-59
2023/04/17 05:32:03;;;;;;;33.90;21.55;;;8.30;99.90;;;;;;5141019;27;20034;-60
2023/04/17 05:34:29;;;;;;;30.58;20.20;;;8.30;99.90;;;;;;5135835;27;20468;-59
2023/04/17 05:36:55;;;;;;;35.53;21.50;;;8.20;99.90;;;;;;5117867;27;20130;-58
2023/04/17 05:39:20;;;;;;;33.13;21.95;;;8.20;99.90;;;;;;5153849;27;20050;-59
2023/04/17 05:41:46;;;;;;;39.92;22.50;;;8.30;99.90;;;;;;5135107;27;20038;-59
2023/04/17 05:44:11;;;;;;;36.65;21.98;;;8.20;99.90;;;;;;5135005;27;20045;-58
2023/04/17 05:46:37;;;;;;;41.05;23.52;;;8.30;99.90;;;;;;5153373;27;20053;-58
2023/04/17 05:49:03;;;;;;;42.10;23.17;;;8.30;99.90;;;;;;5128058;28;20050;-59
2023/04/17 05:51:28;;;;;;;37.10;22.63;;;8.40;99.90;;;;;;5133395;28;20080;-58
2023/04/17 05:53:54;;;;;;;40.80;25.00;;;8.40;99.90;;;;;;5132878;28;20066;-59
2023/04/17 05:56:20;;;;;;;42.72;24.73;;;8.40;99.90;;;;;;5133189;28;20164;-59
2023/04/17 05:58:45;;;;;;;44.00;25.17;;;8.50;99.90;;;;;;5133162;28;20092;-59
2023/04/17 06:01:17;;;;;;;37.50;24.27;;;8.60;99.90;;;;;;5132864;27;20035;-59
2023/04/17 06:03:42;;;;;;;40.90;24.30;;;8.60;99.90;;;;;;5133486;27;20122;-59
2023/04/17 06:06:08;;;;;;;43.15;24.73;;;8.60;99.90;;;;;;5133007;27;20176;-59
2023/04/17 06:08:34;;;;;;;41.45;23.75;;;8.60;99.90;;;;;;5118350;27;20125;-59
2023/04/17 06:10:59;;;;;;;39.72;24.23;;;8.70;99.90;;;;;;5136909;27;20038;-59
2023/04/17 06:13:25;;;;;;;35.97;22.50;;;8.70;99.90;;;;;;5117920;27;20054;-59
2023/04/17 06:15:50;;;;;;;34.67;22.95;;;8.70;99.90;;;;;;5136860;27;20047;-58
2023/04/17 06:18:16;;;;;;;34.35;22.00;;;8.70;99.90;;;;;;5136967;27;20035;-59
2023/04/17 06:20:44;;;;;;;32.83;20.75;;;8.80;99.90;;;;;;5118351;27;20049;-59
2023/04/17 06:23:09;;;;;;;28.60;19.95;;;8.90;99.90;;;;;;5136681;27;20039;-59
2023/04/17 06:25:35;;;;;;;31.05;21.50;;;8.90;99.90;;;;;;5117887;27;20042;-59
2023/04/17 06:28:01;;;;;;;36.33;21.73;;;9.00;99.90;;;;;;5136601;27;20105;-59
2023/04/17 06:30:26;;;;;;;32.58;21.08;;;9.00;99.90;;;;;;5136426;27;20532;-59
2023/04/17 06:32:52;;;;;;;36.50;21.40;;;9.00;99.90;;;;;;5136278;27;20031;-59
2023/04/17 06:35:18;;;;;;;34.72;21.83;;;9.10;99.90;;;;;;5144919;27;20035;-59
2023/04/17 06:37:43;;;;;;;34.35;22.45;;;9.10;99.90;;;;;;5156959;27;20051;-59
2023/04/17 06:40:11;;;;;;;32.78;21.85;;;9.10;99.90;;;;;;5156867;27;20081;-59
2023/04/17 06:42:37;;;;;;;31.73;20.92;;;9.10;99.90;;;;;;5138478;27;20407;-59
2023/04/17 06:45:03;;;;;;;27.70;20.60;;;9.20;99.90;;;;;;5157245;27;20042;-59
2023/04/17 06:47:29;;;;;;;29.20;21.40;;;9.20;99.90;;;;;;5157082;27;20049;-59
2023/04/17 06:49:56;;;;;;;28.35;20.95;;;9.40;99.90;;;;;;5138495;27;20038;-58
2023/04/17 06:52:22;;;;;;;32.03;20.80;;;9.50;99.90;;;;;;5156954;27;20046;-58
2023/04/17 06:54:48;;;;;;;27.85;21.10;;;9.50;99.90;;;;;;5147440;27;20031;-59
2023/04/17 06:57:13;;;;;;;29.08;21.25;;;9.50;99.90;;;;;;5136203;27;20046;-59
2023/04/17 06:59:39;;;;;;;27.65;20.52;;;9.60;99.90;;;;;;5135911;27;20031;-59
2023/04/17 07:02:25;;;;;;;26.67;20.20;;;9.70;99.90;;;;;;5135775;27;20046;-58
2023/04/17 07:04:52;;;;;;;27.63;19.80;;;9.90;99.90;;;;;;5125629;27;20058;-59
2023/04/17 07:07:18;;;;;;;26.70;20.13;;;9.90;99.90;;;;;;5156526;27;20057;-59
2023/04/17 07:09:44;;;;;;;27.83;20.77;;;10.00;99.90;;;;;;5156518;27;20042;-59
2023/04/17 07:12:10;;;;;;;26.63;19.92;;;10.10;99.90;;;;;;5156162;27;20046;-59
2023/04/17 07:14:37;;;;;;;27.90;19.73;;;10.20;99.90;;;;;;5156681;27;20035;-59
2023/04/17 07:17:03;;;;;;;27.13;20.50;;;10.20;99.90;;;;;;5137794;27;20042;-59
2023/04/17 07:19:29;;;;;;;26.23;19.80;;;10.30;99.90;;;;;;5149589;27;20039;-59
2023/04/17 07:21:55;;;;;;;26.85;20.33;;;10.40;99.90;;;;;;5135499;27;20510;-58
2023/04/17 07:24:20;;;;;;;25.98;21.33;;;10.50;99.90;;;;;;5135762;27;20035;-59
2023/04/17 07:26:47;;;;;;;28.42;21.65;;;10.60;99.90;;;;;;5135323;27;20505;-59
2023/04/17 07:29:12;;;;;;;28.38;21.35;;;10.70;99.90;;;;;;5116159;27;20134;-59
2023/04/17 07:31:38;;;;;;;26.48;20.95;;;10.70;99.90;;;;;;5135312;27;20123;-59
2023/04/17 07:34:04;;;;;;;28.23;21.35;;;10.80;99.90;;;;;;5117034;27;20066;-59
2023/04/17 07:36:31;;;;;;;25.75;21.08;;;10.80;99.90;;;;;;5115862;27;20112;-59
2023/04/17 07:38:56;;;;;;;26.20;20.27;;;10.90;99.90;;;;;;5134995;27;20043;-60
2023/04/17 07:41:22;;;;;;;26.20;19.50;;;11.00;99.90;;;;;;5135285;27;20120;-58
2023/04/17 07:43:48;;;;;;;21.88;19.08;;;11.10;99.90;;;;;;5135235;27;20078;-59
2023/04/17 07:46:13;;;;;;;25.67;18.95;;;11.20;99.90;;;;;;5134865;27;20119;-60
2023/04/17 07:48:39;;;;;;;22.20;17.42;;;11.20;99.90;;;;;;5135060;27;20042;-59
2023/04/17 07:51:06;;;;;;;19.95;17.58;;;11.30;99.90;;;;;;5134669;27;20038;-59
2023/04/17 07:53:34;;;;;;;22.33;17.13;;;11.20;99.90;;;;;;5116656;27;20031;-59
2023/04/17 07:56:00;;;;;;;23.00;17.35;;;11.30;99.90;;;;;;5151770;27;20038;-59
2023/04/17 07:58:26;;;;;;;19.15;15.63;;;11.30;99.90;;;;;;5155792;27;20537;-59
2023/04/17 08:00:52;;;;;;;20.25;16.73;;;11.30;99.90;;;;;;5155337;27;20042;-59
2023/04/17 08:03:20;;;;;;;22.33;16.65;;;11.30;99.90;;;;;;5155392;27;20047;-60
2023/04/17 08:05:47;;;;;;;19.42;16.63;;;11.40;99.90;;;;;;5155178;27;20078;-59
2023/04/17 08:08:13;;;;;;;20.15;16.50;;;11.50;99.90;;;;;;5155491;27;20045;-60
2023/04/17 08:10:39;;;;;;;18.30;15.10;;;11.40;99.90;;;;;;5155537;27;20105;-59
2023/04/17 08:13:05;;;;;;;22.67;17.38;;;11.60;99.90;;;;;;5155236;27;20486;-60
2023/04/17 08:15:31;;;;;;;21.77;17.08;;;11.60;99.90;;;;;;5136640;27;20042;-60
2023/04/17 08:17:57;;;;;;;19.17;17.02;;;11.90;99.90;;;;;;5155284;27;20034;-58
2023/04/17 08:20:23;;;;;;;17.45;14.68;;;12.10;99.90;;;;;;5154836;27;20377;-59
2023/04/17 08:22:49;;;;;;;19.48;15.32;;;12.30;99.90;;;;;;5154911;27;20045;-60
2023/04/17 08:25:15;;;;;;;16.90;13.45;;;12.20;99.90;;;;;;5127366;27;20050;-60
2023/04/17 08:27:41;;;;;;;19.13;13.32;;;12.40;99.90;;;;;;5116011;27;20043;-59
2023/04/17 08:30:10;;;;;;;17.13;15.02;;;12.40;99.90;;;;;;5134170;27;20176;-60
2023/04/17 08:32:40;;;;;;;21.98;15.85;;;12.50;99.90;;;;;;5134082;27;20084;-60
2023/04/17 08:35:10;;;;;;;19.65;15.25;;;12.50;99.90;;;;;;5133885;27;20547;-59
2023/04/17 08:37:36;;;;;;;16.80;14.98;;;12.50;99.90;;;;;;5133812;27;20050;-59
2023/04/17 08:40:08;;;;;;;19.92;15.60;;;12.40;99.90;;;;;;5134001;27;20131;-60
2023/04/17 08:42:35;;;;;;;18.50;14.40;;;12.40;99.90;;;;;;5134055;27;20522;-59
2023/04/17 08:45:10;;;;;;;17.80;15.02;;;12.50;99.90;;;;;;5133912;27;20071;-60
2023/04/17 08:47:38;;;;;;;18.23;15.27;;;12.50;99.90;;;;;;5133755;27;20366;-59
2023/04/17 08:50:18;;;;;;;21.48;15.73;;;12.70;99.90;;;;;;5138968;27;20384;-61
2023/04/17 08:52:46;;;;;;;17.35;14.50;;;12.90;99.90;;;;;;5135919;27;20167;-59
2023/04/17 08:55:23;;;;;;;16.10;14.10;;;13.10;99.90;;;;;;5148564;27;20067;-60
2023/04/17 08:57:54;;;;;;;20.30;14.18;;;13.20;99.90;;;;;;5134056;27;20045;-59
2023/04/17 09:00:27;;;;;;;14.90;12.82;;;13.40;99.90;;;;;;5133440;27;20035;-60
2023/04/17 09:02:54;;;;;;;15.70;13.00;;;13.60;99.90;;;;;;5133687;27;20369;-60
2023/04/17 09:05:22;;;;;;;15.32;13.45;;;13.80;99.90;;;;;;5133587;27;20095;-60
2023/04/17 09:08:05;;;;;;;19.58;14.30;;;13.90;99.90;;;;;;5133238;27;20586;-60
2023/04/17 09:10:52;;;;;;;18.35;13.75;;;14.00;99.90;;;;;;5133544;27;20039;-59
2023/04/17 09:13:24;;;;;;;19.40;14.30;;;14.10;99.90;;;;;;5098164;27;20043;-60
2023/04/17 09:16:07;;;;;;;18.00;14.35;;;14.30;99.90;;;;;;5133310;27;20478;-60
2023/04/17 09:18:34;;;;;;;18.48;14.18;;;14.30;99.90;;;;;;5133366;27;20031;-60
2023/04/17 09:21:01;;;;;;;17.10;12.68;;;14.30;99.90;;;;;;5143976;27;20094;-60
2023/04/17 09:23:28;;;;;;;17.02;13.40;;;14.40;99.90;;;;;;5154022;27;20039;-60
2023/04/17 09:26:15;;;;;;;16.05;13.77;;;14.40;99.90;;;;;;5144347;27;20172;-60
2023/04/17 09:29:09;;;;;;;14.05;12.35;;;14.50;99.90;;;;;;5030632;28;20193;-59
2023/04/17 09:31:40;;;;;;;16.02;13.57;;;14.50;99.90;;;;;;5025207;28;20102;-59
2023/04/17 09:34:12;;;;;;;17.05;13.55;;;14.60;99.90;;;;;;5048533;28;20076;-59
2023/04/17 09:36:40;;;;;;;16.88;13.45;;;14.60;99.90;;;;;;5040291;28;20085;-59
2023/04/17 09:39:36;;;;;;;15.17;13.20;;;14.60;99.90;;;;;;5040197;28;20106;-60
2023/04/17 09:42:03;;;;;;;15.85;13.10;;;14.80;99.90;;;;;;4998275;28;20501;-61
2023/04/17 09:44:29;;;;;;;16.33;10.93;;;14.90;99.90;;;;;;5002251;28;20120;-61
2023/04/17 09:46:55;;;;;;;15.93;12.52;;;15.00;99.90;;;;;;5003637;28;20050;-61
2023/04/17 09:49:41;;;;;;;16.10;11.52;;;15.20;99.90;;;;;;4995104;28;20038;-62
2023/04/17 09:52:07;;;;;;;15.32;11.75;;;15.10;99.90;;;;;;4992901;28;20046;-61
2023/04/17 09:54:36;;;;;;;12.68;11.32;;;15.20;99.90;;;;;;5009834;28;20038;-60
2023/04/17 09:57:07;;;;;;;14.00;11.68;;;15.40;99.90;;;;;;5009421;28;20373;-61
2023/04/17 09:59:34;;;;;;;15.57;11.95;;;15.50;99.90;;;;;;5006587;28;20052;-60
2023/04/17 10:02:01;;;;;;;15.85;11.98;;;15.60;99.90;;;;;;5009235;28;20069;-60
2023/04/17 10:04:28;;;;;;;16.50;11.73;;;15.50;99.90;;;;;;4989926;28;20129;-60
2023/04/17 10:06:56;;;;;;;16.58;12.10;;;15.50;99.90;;;;;;5047207;28;20057;-60
2023/04/17 10:09:22;;;;;;;14.30;11.27;;;15.60;99.90;;;;;;5067618;28;20115;-60
2023/04/17 10:11:48;;;;;;;14.75;11.63;;;15.60;99.90;;;;;;5065389;28;20597;-62
2023/04/17 10:14:21;;;;;;;14.52;12.85;;;15.40;99.90;;;;;;5062252;28;20497;-61
2023/04/17 10:16:47;;;;;;;16.60;12.93;;;15.70;99.90;;;;;;5069196;28;20045;-61
2023/04/17 10:19:26;;;;;;;15.43;11.90;;;16.20;99.90;;;;;;5136342;27;20046;-61
2023/04/17 10:22:16;;;;;;;15.20;12.98;;;16.40;99.90;;;;;;5128615;27;20088;-61
2023/04/17 10:24:43;;;;;;;16.77;11.90;;;16.80;99.90;;;;;;5146160;27;20038;-61
2023/04/17 10:27:24;;;;;;;14.90;11.38;;;17.20;99.90;;;;;;5149216;27;20034;-61
2023/04/17 10:29:53;;;;;;;16.30;13.10;;;17.60;99.90;;;;;;5152168;27;20065;-61
2023/04/17 10:32:20;;;;;;;16.05;13.05;;;17.70;99.90;;;;;;5142421;27;20430;-61
2023/04/17 10:34:46;;;;;;;14.02;12.52;;;17.30;99.90;;;;;;5132213;27;20137;-61
2023/04/17 10:37:14;;;;;;;16.00;12.25;;;17.50;99.90;;;;;;5118576;28;20075;-61
2023/04/17 10:39:57;;;;;;;18.25;12.40;;;17.80;99.90;;;;;;5112142;28;20044;-61
2023/04/17 10:42:24;;;;;;;14.25;12.52;;;17.60;99.90;;;;;;5111669;28;20043;-61
2023/04/17 10:44:57;;;;;;;14.50;11.30;;;17.70;99.90;;;;;;5131326;28;20480;-60
2023/04/17 10:47:30;;;;;;;14.45;10.95;;;17.70;99.90;;;;;;5132247;27;20039;-62
2023/04/17 10:49:58;;;;;;;16.75;13.23;;;17.90;99.90;;;;;;5132248;27;20031;-61
2023/04/17 10:52:39;;;;;;;15.15;12.70;;;17.80;99.90;;;;;;5113790;27;20528;-62
2023/04/17 10:55:16;;;;;;;41.50;13.18;;;17.70;99.90;;;;;;5113229;28;20044;-61
2023/04/17 10:57:57;;;;;;;15.45;12.27;;;17.60;99.90;;;;;;5115729;28;20374;-61
2023/04/17 11:00:35;;;;;;;14.73;11.68;;;17.90;99.90;;;;;;5115252;28;20114;-60
2023/04/17 11:03:02;;;;;;;15.32;13.23;;;17.60;99.90;;;;;;5115587;28;20036;-61
2023/04/17 11:05:30;;;;;;;17.33;12.90;;;17.60;99.90;;;;;;5115091;28;20389;-61
2023/04/17 11:07:56;;;;;;;17.58;13.27;;;17.50;99.90;;;;;;5115117;28;20087;-61
2023/04/17 11:10:22;;;;;;;16.17;13.20;;;17.50;99.90;;;;;;5115458;28;20043;-61
2023/04/17 11:12:52;;;;;;;13.35;10.30;;;17.50;99.90;;;;;;5114983;28;20082;-61
2023/04/17 11:15:25;;;;;;;15.30;13.45;;;17.40;99.90;;;;;;5114904;28;20071;-61
2023/04/17 11:17:51;;;;;;;17.58;13.70;;;17.40;99.90;;;;;;5129429;27;20084;-61
2023/04/17 11:20:20;;;;;;;16.25;13.18;;;17.70;99.90;;;;;;5135783;27;20411;-61
2023/04/17 11:22:46;;;;;;;16.90;13.10;;;18.20;99.90;;;;;;5122564;27;20489;-61
2023/04/17 11:25:21;;;;;;;16.30;13.48;;;18.00;99.90;;;;;;5114969;28;20081;-61
2023/04/17 11:27:50;;;;;;;17.40;14.38;;;18.10;99.90;;;;;;5114716;28;20035;-62
2023/04/17 11:30:39;;;;;;;17.45;13.20;;;18.20;99.90;;;;;;5114747;28;20031;-61
2023/04/17 11:33:06;;;;;;;14.07;12.45;;;18.40;99.90;;;;;;5113857;28;20401;-62
2023/04/17 11:35:37;;;;;;;14.63;12.27;;;18.40;99.90;;;;;;5114959;28;20044;-61
2023/04/17 11:38:22;;;;;;;15.52;13.25;;;18.70;99.90;;;;;;5132950;27;20057;-61
2023/04/17 11:40:53;;;;;;;18.95;13.63;;;18.50;99.90;;;;;;5135058;27;20035;-61
2023/04/17 11:43:21;;;;;;;18.92;13.25;;;18.80;99.90;;;;;;5135305;27;20050;-61
2023/04/17 11:45:52;;;;;;;15.32;13.73;;;18.90;99.90;;;;;;5135046;27;20541;-61
2023/04/17 11:48:26;;;;;;;16.48;13.70;;;18.80;99.90;;;;;;5135016;27;20035;-62
2023/04/17 11:51:00;;;;;;;16.38;13.68;;;18.60;99.90;;;;;;5118673;27;20046;-61
2023/04/17 11:53:26;;;;;;;14.18;12.10;;;18.40;99.90;;;;;;5155563;27;20070;-62
2023/04/17 11:56:15;;;;;;;19.80;13.15;;;18.40;99.90;;;;;;5153213;27;20472;-61
2023/04/17 11:59:00;;;;;;;18.85;14.52;;;18.80;99.90;;;;;;5115667;27;20050;-62
2023/04/17 12:01:28;;;;;;;17.80;14.18;;;18.60;99.90;;;;;;5116371;27;20050;-61
2023/04/17 12:03:58;;;;;;;13.88;12.07;;;18.70;99.90;;;;;;5134648;27;20076;-61
2023/04/17 12:06:34;;;;;;;16.40;13.70;;;18.80;99.90;;;;;;5134427;27;20046;-61
2023/04/17 12:09:00;;;;;;;14.80;12.93;;;19.00;99.90;;;;;;5098901;27;20040;-61
2023/04/17 12:11:31;;;;;;;17.55;14.05;;;18.70;99.90;;;;;;5134617;27;20114;-61
2023/04/17 12:13:58;;;;;;;17.30;13.57;;;18.60;99.90;;;;;;5134700;27;20359;-61
2023/04/17 12:16:25;;;;;;;16.27;14.55;;;18.70;99.90;;;;;;5134326;27;20064;-61
2023/04/17 12:18:51;;;;;;;17.80;13.40;;;18.80;99.90;;;;;;5134216;27;20490;-62
2023/04/17 12:21:19;;;;;;;14.23;11.15;;;19.00;99.90;;;;;;5138384;27;20027;-62
2023/04/17 12:23:45;;;;;;;13.63;11.93;;;19.20;99.90;;;;;;5155474;27;20047;-62
2023/04/17 12:26:11;;;;;;;17.30;13.20;;;19.20;99.90;;;;;;5152396;27;20480;-61
2023/04/17 12:28:37;;;;;;;15.93;12.45;;;19.20;99.90;;;;;;5134374;27;20392;-62
2023/04/17 12:31:04;;;;;;;15.70;12.50;;;19.30;99.90;;;;;;5134269;27;20544;-62
2023/04/17 12:33:30;;;;;;;13.90;12.48;;;19.30;99.90;;;;;;5134357;27;20038;-62
2023/04/17 12:35:56;;;;;;;17.02;12.10;;;19.40;99.90;;;;;;5115732;27;20470;-62